Emerald Princess — ZCDP8 — position and weather

sailwx.info

Track history (hours):
 
Tides and Currents Weather Stations Pressure Air Temp Water Temp Dewpoint Dewpoint Depression Visibility Wind Speed Wind Dir Waves Ship Positions

Emerald Princess

Last reported at 2020-Aug-10 00:29 UTC. Time now 2020-Aug-10 02:49 UTC.
Position N 52°11' E 004°14'.

Type: Ship. MMSI: 310531000.

Date/timePositionNaut miles runAvg speedWind from/ knotsBaromVisibWave heightAir tempDewpointWater temp
2020-Aug-10 00:29N 52°11' E 004°14'0 0.0
2020-Aug-09 23:29N 52°11' E 004°14'0 0.0
2020-Aug-09 20:00N 52°11' E 004°14'0 0.0
2020-Aug-09 18:29N 52°11' E 004°14'0 0.1
2020-Aug-09 16:29N 52°11' E 004°14'0 0.0
2020-Aug-09 14:58N 52°11' E 004°14'0 0.0
2020-Aug-09 12:30N 52°11' E 004°14'0 0.0
2020-Aug-09 10:59N 52°11' E 004°14'0 0.0
2020-Aug-09 09:29N 52°11' E 004°14'0 0.1
2020-Aug-09 07:28N 52°11' E 004°14'0 0.0
2020-Aug-09 07:00N 52°11' E 004°14'0 0.0
2020-Aug-09 05:30N 52°11' E 004°14'0 0.1
2020-Aug-09 04:29N 52°11' E 004°14'0 0.0
2020-Aug-08 23:30N 52°11' E 004°14'0 0.0
2020-Aug-08 22:30N 52°11' E 004°14'0 0.0
2020-Aug-08 21:29N 52°11' E 004°14'0 0.0
2020-Aug-08 17:28N 52°11' E 004°14'0 0.0
2020-Aug-08 14:29N 52°11' E 004°14'0 0.0
2020-Aug-08 12:59N 52°11' E 004°14'0 0.0
2020-Aug-08 11:28N 52°11' E 004°14'0 0.0
2020-Aug-08 10:58N 52°11' E 004°14'0 0.0
2020-Aug-08 09:30N 52°11' E 004°14'0 0.0
2020-Aug-08 09:00N 52°11' E 004°14'0 0.0
2020-Aug-08 08:00N 52°11' E 004°14'0 0.0
2020-Aug-08 04:58N 52°11' E 004°14'0 0.0
2020-Aug-08 03:58N 52°11' E 004°14'0 0.1
2020-Aug-08 03:28N 52°11' E 004°14'0 0.0
2020-Aug-08 03:00N 52°11' E 004°14'0 0.0
2020-Aug-08 01:00N 52°11' E 004°14'0 0.0
2020-Aug-07 23:59N 52°11' E 004°14'0 0.0
2020-Aug-07 21:58N 52°11' E 004°14'0 0.0
2020-Aug-07 19:30N 52°11' E 004°14'0 0.0
2020-Aug-07 17:28N 52°11' E 004°14'0 0.0
2020-Aug-07 16:28N 52°11' E 004°14'0 0.0
2020-Aug-07 14:00N 52°11' E 004°14'0 0.0
2020-Aug-07 12:59N 52°11' E 004°14'0 0.0
2020-Aug-07 12:29N 52°11' E 004°14'0 1.2
2020-Aug-07 12:25N 52°11' E 004°14'0 0.0
2020-Aug-07 10:28N 52°11' E 004°14'0 0.0
2020-Aug-07 09:58N 52°11' E 004°14'0 0.0
2020-Aug-07 06:30N 52°11' E 004°14'0 0.0
2020-Aug-07 04:59N 52°11' E 004°14'0 0.0
2020-Aug-07 04:29N 52°11' E 004°14'0 0.0
2020-Aug-07 03:59N 52°11' E 004°14'0 0.1
2020-Aug-07 03:28N 52°11' E 004°14'0 0.0
2020-Aug-07 01:00N 52°11' E 004°14'0 0.0
2020-Aug-06 23:30N 52°11' E 004°14'0 0.0
2020-Aug-06 21:29N 52°11' E 004°14'0 0.0
2020-Aug-06 19:58N 52°11' E 004°14'0 0.0
2020-Aug-06 15:59N 52°11' E 004°14'0 0.0
2020-Aug-06 13:28N 52°11' E 004°14'8 1.1
2020-Aug-06 06:01N 52°18' E 004°08'510.8
2020-Aug-06 05:31N 52°21' E 004°01'1110.8
2020-Aug-06 04:30N 52°23' E 003°43'510.9
2020-Aug-06 04:00N 52°23' E 003°34'2211.1
2020-Aug-06 01:59N 52°15' E 002°60'610.7
2020-Aug-06 01:23N 52°18' E 002°50'24 8.4
2020-Aug-05 22:30N 52°31' E 003°25'2811.3
2020-Aug-05 20:01N 52°31' E 004°11'510.5
2020-Aug-05 19:30N 52°30' E 004°20'9 4.5
2020-Aug-05 17:28N 52°28' E 004°34'0 0.0
2020-Aug-05 14:00N 52°28' E 004°34'0 0.0
2020-Aug-05 12:59N 52°28' E 004°34'0 0.0
2020-Aug-05 12:29N 52°28' E 004°34'0 0.0
2020-Aug-05 09:28N 52°28' E 004°34'0 0.0
2020-Aug-05 06:30N 52°28' E 004°34'0 0.0
2020-Aug-05 04:26N 52°28' E 004°34'0 0.0
2020-Aug-05 00:30N 52°28' E 004°34'0 0.0
2020-Aug-04 22:29N 52°28' E 004°34'0 0.0
2020-Aug-04 20:58N 52°28' E 004°34'0 0.0
2020-Aug-04 19:58N 52°28' E 004°34'0 0.0
2020-Aug-04 17:00N 52°28' E 004°34'0 0.0
2020-Aug-04 10:58N 52°28' E 004°34'0 0.0
2020-Aug-04 09:28N 52°28' E 004°34'0 0.0
2020-Aug-04 08:58N 52°28' E 004°34'0 0.0
2020-Aug-04 08:30N 52°28' E 004°34'17 4.9
2020-Aug-04 05:00N 52°28' E 004°06'1414.0
2020-Aug-04 04:00N 52°25' E 003°44'1312.5
2020-Aug-04 03:00N 52°30' E 003°25'19 3.9
2020-Aug-03 22:06N 52°11' E 003°26'29 6.3
2020-Aug-03 17:29N 52°11' E 004°13'0 0.0
2020-Aug-03 16:29N 52°11' E 004°13'0 0.0
2020-Aug-03 15:29N 52°11' E 004°13'0 0.0
2020-Aug-03 13:00N 52°11' E 004°13'0 0.0
2020-Aug-03 11:00N 52°11' E 004°13'0 0.1
2020-Aug-03 09:59N 52°11' E 004°13'0 0.0
2020-Aug-03 09:29N 52°11' E 004°13'0 0.1
2020-Aug-03 08:59N 52°11' E 004°13'0 0.0
2020-Aug-03 06:58N 52°11' E 004°13'51049.0
2020-Aug-03 06:58N 52°06' E 004°16'596.6
2020-Aug-03 06:54N 52°11' E 004°13'0 0.1
2020-Aug-03 05:30N 52°11' E 004°13'0 4.2
2020-Aug-03 05:29N 52°11' E 004°13'0 0.5
2020-Aug-03 05:22N 52°11' E 004°13'0 0.1
2020-Aug-03 04:30N 52°11' E 004°13'0 0.0
2020-Aug-03 03:29N 52°11' E 004°13'0 0.0
2020-Aug-02 23:58N 52°11' E 004°13'0 0.0
2020-Aug-02 17:28N 52°11' E 004°13'0 0.0
2020-Aug-02 16:28N 52°11' E 004°13'0 0.0
2020-Aug-02 13:29N 52°11' E 004°13'0 0.0
2020-Aug-02 12:59N 52°11' E 004°13'0 0.0
2020-Aug-02 12:29N 52°11' E 004°13'0 0.8
2020-Aug-02 12:19N 52°11' E 004°13'0 0.1
2020-Aug-02 10:30N 52°11' E 004°13'0 2.4
2020-Aug-02 10:28N 52°11' E 004°13'0 0.2
2020-Aug-02 10:00N 52°11' E 004°13'0 2.5
2020-Aug-02 09:58N 52°11' E 004°13'5 1.5
2020-Aug-02 06:30N 52°06' E 004°16'5587.2
2020-Aug-02 06:29N 52°11' E 004°13'517.3
2020-Aug-02 06:11N 52°06' E 004°16'5 4.3
2020-Aug-02 04:59N 52°11' E 004°13'0 0.0
2020-Aug-02 04:28N 52°11' E 004°13'0 0.0
2020-Aug-02 03:58N 52°11' E 004°13'0 0.0
2020-Aug-02 02:58N 52°11' E 004°13'0 0.0
2020-Aug-02 02:00N 52°11' E 004°13'0 0.0
2020-Aug-02 01:00N 52°11' E 004°13'0 0.0
2020-Aug-01 22:29N 52°11' E 004°13'0 0.0
2020-Aug-01 15:59N 52°11' E 004°13'0 0.0
2020-Aug-01 13:58N 52°11' E 004°13'0 0.0
2020-Aug-01 11:30N 52°11' E 004°13'0 0.0
2020-Aug-01 09:29N 52°11' E 004°13'0 0.0
2020-Aug-01 05:31N 52°11' E 004°13'0 0.0
2020-Aug-01 02:59N 52°11' E 004°13'0 0.1
2020-Aug-01 02:29N 52°11' E 004°13'0 0.0
2020-Aug-01 00:28N 52°11' E 004°13'0 0.0
2020-Jul-31 23:58N 52°11' E 004°13'0 0.0
2020-Jul-31 21:30N 52°11' E 004°13'0 0.0
2020-Jul-31 17:59N 52°11' E 004°13'0 0.0
2020-Jul-31 15:30N 52°11' E 004°13'0 0.0
2020-Jul-31 11:59N 52°11' E 004°13'0 0.0
2020-Jul-31 09:58N 52°11' E 004°13'0 0.0
2020-Jul-31 06:30N 52°11' E 004°13'0 0.0
2020-Jul-31 06:00N 52°11' E 004°13'0 0.0
2020-Jul-31 04:59N 52°11' E 004°13'0 0.0
2020-Jul-31 03:58N 52°11' E 004°13'0 0.0
2020-Jul-31 01:00N 52°11' E 004°13'0 0.0
2020-Jul-31 00:30N 52°11' E 004°13'  
Track history (hours):
 
Tides and Currents Weather Stations Pressure Air Temp Water Temp Dewpoint Dewpoint Depression Visibility Wind Speed Wind Dir Waves Ship Positions

Emerald Princess

Last reported at 2020-Aug-10 00:29 UTC. Time now 2020-Aug-10 02:49 UTC.
Position N 52°11' E 004°14'.

Type: Ship. MMSI: 310531000.

Date/timePositionNaut miles runAvg speedWind from/ knotsBaromVisibWave heightAir tempDewpointWater temp
2020-Aug-10 00:29N 52°11' E 004°14'0 0.0
2020-Aug-09 23:29N 52°11' E 004°14'0 0.0
2020-Aug-09 20:00N 52°11' E 004°14'0 0.0
2020-Aug-09 18:29N 52°11' E 004°14'0 0.1
2020-Aug-09 16:29N 52°11' E 004°14'0 0.0
2020-Aug-09 14:58N 52°11' E 004°14'0 0.0
2020-Aug-09 12:30N 52°11' E 004°14'0 0.0
2020-Aug-09 10:59N 52°11' E 004°14'0 0.0
2020-Aug-09 09:29N 52°11' E 004°14'0 0.1
2020-Aug-09 07:28N 52°11' E 004°14'0 0.0
2020-Aug-09 07:00N 52°11' E 004°14'0 0.0
2020-Aug-09 05:30N 52°11' E 004°14'0 0.1
2020-Aug-09 04:29N 52°11' E 004°14'0 0.0
2020-Aug-08 23:30N 52°11' E 004°14'0 0.0
2020-Aug-08 22:30N 52°11' E 004°14'0 0.0
2020-Aug-08 21:29N 52°11' E 004°14'0 0.0
2020-Aug-08 17:28N 52°11' E 004°14'0 0.0
2020-Aug-08 14:29N 52°11' E 004°14'0 0.0
2020-Aug-08 12:59N 52°11' E 004°14'0 0.0
2020-Aug-08 11:28N 52°11' E 004°14'0 0.0
2020-Aug-08 10:58N 52°11' E 004°14'0 0.0
2020-Aug-08 09:30N 52°11' E 004°14'0 0.0
2020-Aug-08 09:00N 52°11' E 004°14'0 0.0
2020-Aug-08 08:00N 52°11' E 004°14'0 0.0
2020-Aug-08 04:58N 52°11' E 004°14'0 0.0
2020-Aug-08 03:58N 52°11' E 004°14'0 0.1
2020-Aug-08 03:28N 52°11' E 004°14'0 0.0
2020-Aug-08 03:00N 52°11' E 004°14'0 0.0
2020-Aug-08 01:00N 52°11' E 004°14'0 0.0
2020-Aug-07 23:59N 52°11' E 004°14'0 0.0
2020-Aug-07 21:58N 52°11' E 004°14'0 0.0
2020-Aug-07 19:30N 52°11' E 004°14'0 0.0
2020-Aug-07 17:28N 52°11' E 004°14'0 0.0
2020-Aug-07 16:28N 52°11' E 004°14'0 0.0
2020-Aug-07 14:00N 52°11' E 004°14'0 0.0
2020-Aug-07 12:59N 52°11' E 004°14'0 0.0
2020-Aug-07 12:29N 52°11' E 004°14'0 1.2
2020-Aug-07 12:25N 52°11' E 004°14'0 0.0
2020-Aug-07 10:28N 52°11' E 004°14'0 0.0
2020-Aug-07 09:58N 52°11' E 004°14'0 0.0
2020-Aug-07 06:30N 52°11' E 004°14'0 0.0
2020-Aug-07 04:59N 52°11' E 004°14'0 0.0
2020-Aug-07 04:29N 52°11' E 004°14'0 0.0
2020-Aug-07 03:59N 52°11' E 004°14'0 0.1
2020-Aug-07 03:28N 52°11' E 004°14'0 0.0
2020-Aug-07 01:00N 52°11' E 004°14'0 0.0
2020-Aug-06 23:30N 52°11' E 004°14'0 0.0
2020-Aug-06 21:29N 52°11' E 004°14'0 0.0
2020-Aug-06 19:58N 52°11' E 004°14'0 0.0
2020-Aug-06 15:59N 52°11' E 004°14'0 0.0
2020-Aug-06 13:28N 52°11' E 004°14'8 1.1
2020-Aug-06 06:01N 52°18' E 004°08'510.8
2020-Aug-06 05:31N 52°21' E 004°01'1110.8
2020-Aug-06 04:30N 52°23' E 003°43'510.9
2020-Aug-06 04:00N 52°23' E 003°34'2211.1
2020-Aug-06 01:59N 52°15' E 002°60'610.7
2020-Aug-06 01:23N 52°18' E 002°50'24 8.4
2020-Aug-05 22:30N 52°31' E 003°25'2811.3
2020-Aug-05 20:01N 52°31' E 004°11'510.5
2020-Aug-05 19:30N 52°30' E 004°20'9 4.5
2020-Aug-05 17:28N 52°28' E 004°34'0 0.0
2020-Aug-05 14:00N 52°28' E 004°34'0 0.0
2020-Aug-05 12:59N 52°28' E 004°34'0 0.0
2020-Aug-05 12:29N 52°28' E 004°34'0 0.0
2020-Aug-05 09:28N 52°28' E 004°34'0 0.0
2020-Aug-05 06:30N 52°28' E 004°34'0 0.0
2020-Aug-05 04:26N 52°28' E 004°34'0 0.0
2020-Aug-05 00:30N 52°28' E 004°34'0 0.0
2020-Aug-04 22:29N 52°28' E 004°34'0 0.0
2020-Aug-04 20:58N 52°28' E 004°34'0 0.0
2020-Aug-04 19:58N 52°28' E 004°34'0 0.0
2020-Aug-04 17:00N 52°28' E 004°34'0 0.0
2020-Aug-04 10:58N 52°28' E 004°34'0 0.0
2020-Aug-04 09:28N 52°28' E 004°34'0 0.0
2020-Aug-04 08:58N 52°28' E 004°34'0 0.0
2020-Aug-04 08:30N 52°28' E 004°34'17 4.9
2020-Aug-04 05:00N 52°28' E 004°06'1414.0
2020-Aug-04 04:00N 52°25' E 003°44'1312.5
2020-Aug-04 03:00N 52°30' E 003°25'19 3.9
2020-Aug-03 22:06N 52°11' E 003°26'29 6.3
2020-Aug-03 17:29N 52°11' E 004°13'0 0.0
2020-Aug-03 16:29N 52°11' E 004°13'0 0.0
2020-Aug-03 15:29N 52°11' E 004°13'0 0.0
2020-Aug-03 13:00N 52°11' E 004°13'0 0.0
2020-Aug-03 11:00N 52°11' E 004°13'0 0.1
2020-Aug-03 09:59N 52°11' E 004°13'0 0.0
2020-Aug-03 09:29N 52°11' E 004°13'0 0.1
2020-Aug-03 08:59N 52°11' E 004°13'0 0.0
2020-Aug-03 06:58N 52°11' E 004°13'51049.0
2020-Aug-03 06:58N 52°06' E 004°16'596.6
2020-Aug-03 06:54N 52°11' E 004°13'0 0.1
2020-Aug-03 05:30N 52°11' E 004°13'0 4.2
2020-Aug-03 05:29N 52°11' E 004°13'0 0.5
2020-Aug-03 05:22N 52°11' E 004°13'0 0.1
2020-Aug-03 04:30N 52°11' E 004°13'0 0.0
2020-Aug-03 03:29N 52°11' E 004°13'0 0.0
2020-Aug-02 23:58N 52°11' E 004°13'0 0.0
2020-Aug-02 17:28N 52°11' E 004°13'0 0.0
2020-Aug-02 16:28N 52°11' E 004°13'0 0.0
2020-Aug-02 13:29N 52°11' E 004°13'0 0.0
2020-Aug-02 12:59N 52°11' E 004°13'0 0.0
2020-Aug-02 12:29N 52°11' E 004°13'0 0.8
2020-Aug-02 12:19N 52°11' E 004°13'0 0.1
2020-Aug-02 10:30N 52°11' E 004°13'0 2.4
2020-Aug-02 10:28N 52°11' E 004°13'0 0.2
2020-Aug-02 10:00N 52°11' E 004°13'0 2.5
2020-Aug-02 09:58N 52°11' E 004°13'5 1.5
2020-Aug-02 06:30N 52°06' E 004°16'5587.2
2020-Aug-02 06:29N 52°11' E 004°13'517.3
2020-Aug-02 06:11N 52°06' E 004°16'5 4.3
2020-Aug-02 04:59N 52°11' E 004°13'0 0.0
2020-Aug-02 04:28N 52°11' E 004°13'0 0.0
2020-Aug-02 03:58N 52°11' E 004°13'0 0.0
2020-Aug-02 02:58N 52°11' E 004°13'0 0.0
2020-Aug-02 02:00N 52°11' E 004°13'0 0.0
2020-Aug-02 01:00N 52°11' E 004°13'0 0.0
2020-Aug-01 22:29N 52°11' E 004°13'0 0.0
2020-Aug-01 15:59N 52°11' E 004°13'0 0.0
2020-Aug-01 13:58N 52°11' E 004°13'0 0.0
2020-Aug-01 11:30N 52°11' E 004°13'0 0.0
2020-Aug-01 09:29N 52°11' E 004°13'0 0.0
2020-Aug-01 05:31N 52°11' E 004°13'0 0.0
2020-Aug-01 02:59N 52°11' E 004°13'0 0.1
2020-Aug-01 02:29N 52°11' E 004°13'0 0.0
2020-Aug-01 00:28N 52°11' E 004°13'0 0.0
2020-Jul-31 23:58N 52°11' E 004°13'0 0.0
2020-Jul-31 21:30N 52°11' E 004°13'0 0.0
2020-Jul-31 17:59N 52°11' E 004°13'0 0.0
2020-Jul-31 15:30N 52°11' E 004°13'0 0.0
2020-Jul-31 11:59N 52°11' E 004°13'0 0.0
2020-Jul-31 09:58N 52°11' E 004°13'0 0.0
2020-Jul-31 06:30N 52°11' E 004°13'0 0.0
2020-Jul-31 06:00N 52°11' E 004°13'0 0.0
2020-Jul-31 04:59N 52°11' E 004°13'0 0.0
2020-Jul-31 03:58N 52°11' E 004°13'0 0.0
2020-Jul-31 01:00N 52°11' E 004°13'0 0.0
2020-Jul-31 00:30N 52°11' E 004°13'  

Dump ship's entire track history